Terminal Aerodrome Forecast
Issued by NWS Duluth, MN

Home | Current Version | Previous Version | Text Only | Print | Product List | Glossary On
Versions: 1 2 3 4 5 6 7 8 9 10 11 12 13
129
FTUS43 KDLH 030536
TAFINL
TAF
KINL 030536Z 0306/0406 23003KT P6SM SCT150
     FM031100 25006KT P6SM BKN080
     FM031400 30014G21KT P6SM BKN100
     FM031600 33017G27KT P6SM SCT100
     FM040200 36009KT P6SM SKC=

USA.gov is the U.S. government's official web portal to all federal, state and local government web resources and services.